sensor_id;sensor_type;location;lat;lon;timestamp;pressure;altitude;pressure_sealevel;temperature;humidity
37368;BME280;23240;43.210;27.910;2023-07-30T00:02:14;100785.84;;;22.17;100.00
37368;BME280;23240;43.210;27.910;2023-07-30T00:04:40;100789.63;;;22.16;100.00
37368;BME280;23240;43.210;27.910;2023-07-30T00:07:05;100779.09;;;22.13;100.00
37368;BME280;23240;43.210;27.910;2023-07-30T00:09:30;100784.78;;;22.11;100.00
37368;BME280;23240;43.210;27.910;2023-07-30T00:11:56;100784.91;;;22.10;100.00
37368;BME280;23240;43.210;27.910;2023-07-30T00:14:21;100782.19;;;22.10;100.00
37368;BME280;23240;43.210;27.910;2023-07-30T00:16:46;100780.72;;;22.07;100.00
37368;BME280;23240;43.210;27.910;2023-07-30T00:19:12;100772.94;;;22.04;100.00
37368;BME280;23240;43.210;27.910;2023-07-30T00:21:37;100770.78;;;21.99;100.00
37368;BME280;23240;43.210;27.910;2023-07-30T00:24:02;100768.72;;;22.01;100.00
37368;BME280;23240;43.210;27.910;2023-07-30T00:26:28;100770.19;;;22.04;100.00
37368;BME280;23240;43.210;27.910;2023-07-30T00:28:55;100766.84;;;22.02;100.00
37368;BME280;23240;43.210;27.910;2023-07-30T00:31:20;100768.28;;;21.98;100.00
37368;BME280;23240;43.210;27.910;2023-07-30T00:33:45;100766.81;;;21.95;100.00
37368;BME280;23240;43.210;27.910;2023-07-30T00:36:11;100767.44;;;21.97;100.00
37368;BME280;23240;43.210;27.910;2023-07-30T00:38:36;100768.50;;;21.96;100.00
37368;BME280;23240;43.210;27.910;2023-07-30T00:41:01;100767.81;;;21.94;100.00
37368;BME280;23240;43.210;27.910;2023-07-30T00:43:27;100772.41;;;21.87;100.00
37368;BME280;23240;43.210;27.910;2023-07-30T00:45:52;100765.06;;;21.88;100.00
37368;BME280;23240;43.210;27.910;2023-07-30T00:48:17;100760.66;;;21.87;100.00
37368;BME280;23240;43.210;27.910;2023-07-30T00:50:43;100770.47;;;21.81;100.00
37368;BME280;23240;43.210;27.910;2023-07-30T00:53:08;100765.03;;;21.81;100.00
37368;BME280;23240;43.210;27.910;2023-07-30T00:55:34;100760.78;;;21.78;100.00
37368;BME280;23240;43.210;27.910;2023-07-30T00:58:00;100764.38;;;21.79;100.00
37368;BME280;23240;43.210;27.910;2023-07-30T01:00:26;100770.03;;;21.77;100.00
37368;BME280;23240;43.210;27.910;2023-07-30T01:02:52;100771.06;;;21.76;100.00
37368;BME280;23240;43.210;27.910;2023-07-30T01:05:17;100760.34;;;21.75;100.00
37368;BME280;23240;43.210;27.910;2023-07-30T01:07:43;100764.13;;;21.74;100.00
37368;BME280;23240;43.210;27.910;2023-07-30T01:10:08;100766.00;;;21.73;100.00
37368;BME280;23240;43.210;27.910;2023-07-30T01:12:34;100759.91;;;21.71;100.00
37368;BME280;23240;43.210;27.910;2023-07-30T01:14:59;100766.00;;;21.73;100.00
37368;BME280;23240;43.210;27.910;2023-07-30T01:17:25;100759.91;;;21.71;100.00
37368;BME280;23240;43.210;27.910;2023-07-30T01:19:52;100754.84;;;21.68;100.00
37368;BME280;23240;43.210;27.910;2023-07-30T01:22:20;100765.28;;;21.65;100.00
37368;BME280;23240;43.210;27.910;2023-07-30T01:24:45;100759.00;;;21.64;100.00
37368;BME280;23240;43.210;27.910;2023-07-30T01:27:16;100757.97;;;21.65;100.00
37368;BME280;23240;43.210;27.910;2023-07-30T01:29:42;100759.00;;;21.64;100.00
37368;BME280;23240;43.210;27.910;2023-07-30T01:32:10;100760.25;;;21.62;100.00
37368;BME280;23240;43.210;27.910;2023-07-30T01:34:36;100758.75;;;21.59;100.00
37368;BME280;23240;43.210;27.910;2023-07-30T01:37:02;100751.81;;;21.57;100.00
37368;BME280;23240;43.210;27.910;2023-07-30T01:39:28;100754.16;;;21.60;100.00
37368;BME280;23240;43.210;27.910;2023-07-30T01:41:54;100750.56;;;21.59;100.00
37368;BME280;23240;43.210;27.910;2023-07-30T01:44:20;100755.56;;;21.55;100.00
37368;BME280;23240;43.210;27.910;2023-07-30T01:46:45;100756.81;;;21.53;100.00
37368;BME280;23240;43.210;27.910;2023-07-30T01:49:11;100749.88;;;21.50;100.00
37368;BME280;23240;43.210;27.910;2023-07-30T01:51:36;100755.72;;;21.47;100.00
37368;BME280;23240;43.210;27.910;2023-07-30T01:54:01;100752.16;;;21.47;100.00
37368;BME280;23240;43.210;27.910;2023-07-30T01:56:27;100754.03;;;21.46;100.00
37368;BME280;23240;43.210;27.910;2023-07-30T01:58:52;100756.75;;;21.46;100.00
37368;BME280;23240;43.210;27.910;2023-07-30T02:01:17;100756.09;;;21.44;100.00
37368;BME280;23240;43.210;27.910;2023-07-30T02:03:43;100751.72;;;21.43;100.00
37368;BME280;23240;43.210;27.910;2023-07-30T02:06:08;100752.75;;;21.42;100.00
37368;BME280;23240;43.210;27.910;2023-07-30T02:08:33;100756.69;;;21.40;100.00
37368;BME280;23240;43.210;27.910;2023-07-30T02:10:59;100755.22;;;21.37;100.00
37368;BME280;23240;43.210;27.910;2023-07-30T02:13:24;100756.66;;;21.33;100.00
37368;BME280;23240;43.210;27.910;2023-07-30T02:15:50;100762.44;;;21.30;100.00
37368;BME280;23240;43.210;27.910;2023-07-30T02:18:15;100765.28;;;21.22;100.00
37368;BME280;23240;43.210;27.910;2023-07-30T02:20:41;100772.56;;;21.15;100.00
37368;BME280;23240;43.210;27.910;2023-07-30T02:23:07;100764.13;;;21.10;100.00
37368;BME280;23240;43.210;27.910;2023-07-30T02:25:32;100765.91;;;21.02;100.00
37368;BME280;23240;43.210;27.910;2023-07-30T02:27:58;100772.81;;;20.98;100.00
37368;BME280;23240;43.210;27.910;2023-07-30T02:30:24;100773.19;;;20.95;100.00
37368;BME280;23240;43.210;27.910;2023-07-30T02:32:49;100779.69;;;20.94;100.00
37368;BME280;23240;43.210;27.910;2023-07-30T02:35:14;100768.78;;;20.94;100.00
37368;BME280;23240;43.210;27.910;2023-07-30T02:37:40;100769.16;;;20.91;100.00
37368;BME280;23240;43.210;27.910;2023-07-30T02:40:05;100775.25;;;20.93;100.00
37368;BME280;23240;43.210;27.910;2023-07-30T02:42:30;100780.31;;;20.96;100.00
37368;BME280;23240;43.210;27.910;2023-07-30T02:44:56;100785.75;;;20.96;100.00
37368;BME280;23240;43.210;27.910;2023-07-30T02:47:21;100784.09;;;20.95;100.00
37368;BME280;23240;43.210;27.910;2023-07-30T02:49:47;100786.81;;;20.95;100.00
37368;BME280;23240;43.210;27.910;2023-07-30T02:52:12;100787.19;;;20.92;100.00
37368;BME280;23240;43.210;27.910;2023-07-30T02:54:37;100786.75;;;20.89;100.00
37368;BME280;23240;43.210;27.910;2023-07-30T02:57:03;100794.59;;;20.84;100.00
37368;BME280;23240;43.210;27.910;2023-07-30T02:59:28;100784.50;;;20.77;100.00
37368;BME280;23240;43.210;27.910;2023-07-30T03:01:53;100790.03;;;20.69;100.00
37368;BME280;23240;43.210;27.910;2023-07-30T03:04:19;100785.94;;;20.59;100.00
37368;BME280;23240;43.210;27.910;2023-07-30T03:06:44;100790.81;;;20.48;100.00
37368;BME280;23240;43.210;27.910;2023-07-30T03:09:09;100794.56;;;20.47;100.00
37368;BME280;23240;43.210;27.910;2023-07-30T03:11:35;100795.91;;;20.51;100.00
37368;BME280;23240;43.210;27.910;2023-07-30T03:14:00;100797.00;;;20.42;100.00
37368;BME280;23240;43.210;27.910;2023-07-30T03:16:25;100790.59;;;20.35;100.00
37368;BME280;23240;43.210;27.910;2023-07-30T03:18:50;100803.06;;;20.29;100.00
37368;BME280;23240;43.210;27.910;2023-07-30T03:21:16;100800.56;;;20.28;100.00
37368;BME280;23240;43.210;27.910;2023-07-30T03:23:41;100800.19;;;20.31;100.00
37368;BME280;23240;43.210;27.910;2023-07-30T03:26:09;100805.22;;;20.34;100.00
37368;BME280;23240;43.210;27.910;2023-07-30T03:28:34;100798.59;;;20.37;100.00
37368;BME280;23240;43.210;27.910;2023-07-30T03:30:59;100801.31;;;20.37;100.00
37368;BME280;23240;43.210;27.910;2023-07-30T03:33:25;100807.13;;;20.48;100.00
37368;BME280;23240;43.210;27.910;2023-07-30T03:35:50;100803.66;;;20.54;100.00
37368;BME280;23240;43.210;27.910;2023-07-30T03:38:15;100808.53;;;20.59;100.00
37368;BME280;23240;43.210;27.910;2023-07-30T03:40:41;100810.69;;;20.64;100.00
37368;BME280;23240;43.210;27.910;2023-07-30T03:43:06;100810.31;;;20.67;100.00
37368;BME280;23240;43.210;27.910;2023-07-30T03:45:31;100809.97;;;20.70;100.00
37368;BME280;23240;43.210;27.910;2023-07-30T03:47:58;100804.13;;;20.73;100.00
37368;BME280;23240;43.210;27.910;2023-07-30T03:50:23;100799.97;;;20.77;100.00
37368;BME280;23240;43.210;27.910;2023-07-30T03:52:48;100802.13;;;20.82;100.00
37368;BME280;23240;43.210;27.910;2023-07-30T03:55:14;100804.22;;;20.79;100.00
37368;BME280;23240;43.210;27.910;2023-07-30T03:57:40;100796.59;;;20.90;100.00
37368;BME280;23240;43.210;27.910;2023-07-30T04:00:05;100797.75;;;21.02;100.00
37368;BME280;23240;43.210;27.910;2023-07-30T04:02:31;100802.53;;;21.15;100.00
37368;BME280;23240;43.210;27.910;2023-07-30T04:04:56;100797.13;;;21.21;100.00
37368;BME280;23240;43.210;27.910;2023-07-30T04:07:21;100793.44;;;21.29;100.00
37368;BME280;23240;43.210;27.910;2023-07-30T04:09:47;100794.59;;;21.35;100.00
37368;BME280;23240;43.210;27.910;2023-07-30T04:12:12;100786.56;;;21.48;100.00
37368;BME280;23240;43.210;27.910;2023-07-30T04:14:37;100786.00;;;21.59;100.00
37368;BME280;23240;43.210;27.910;2023-07-30T04:17:03;100792.22;;;21.74;100.00
37368;BME280;23240;43.210;27.910;2023-07-30T04:19:28;100787.47;;;21.83;100.00
37368;BME280;23240;43.210;27.910;2023-07-30T04:21:53;100789.00;;;21.92;100.00
37368;BME280;23240;43.210;27.910;2023-07-30T04:24:19;100791.16;;;21.97;100.00
37368;BME280;23240;43.210;27.910;2023-07-30T04:26:44;100788.66;;;22.02;100.00
37368;BME280;23240;43.210;27.910;2023-07-30T04:29:09;100791.59;;;22.00;100.00
37368;BME280;23240;43.210;27.910;2023-07-30T04:31:35;100788.47;;;22.03;100.00
37368;BME280;23240;43.210;27.910;2023-07-30T04:34:00;100794.63;;;22.12;100.00
37368;BME280;23240;43.210;27.910;2023-07-30T04:36:26;100795.13;;;22.22;100.00
37368;BME280;23240;43.210;27.910;2023-07-30T04:38:51;100791.22;;;22.38;100.00
37368;BME280;23240;43.210;27.910;2023-07-30T04:41:16;100785.88;;;22.58;100.00
37368;BME280;23240;43.210;27.910;2023-07-30T04:43:43;100790.34;;;23.27;100.00
37368;BME280;23240;43.210;27.910;2023-07-30T04:46:09;100783.38;;;24.50;100.00
37368;BME280;23240;43.210;27.910;2023-07-30T04:48:34;100782.47;;;25.46;100.00
37368;BME280;23240;43.210;27.910;2023-07-30T04:50:59;100789.63;;;26.04;100.00
37368;BME280;23240;43.210;27.910;2023-07-30T04:53:24;100790.22;;;26.68;100.00
37368;BME280;23240;43.210;27.910;2023-07-30T04:55:54;100794.03;;;26.85;100.00
37368;BME280;23240;43.210;27.910;2023-07-30T04:58:19;100784.09;;;26.84;100.00
37368;BME280;23240;43.210;27.910;2023-07-30T05:00:45;100793.38;;;27.20;100.00
37368;BME280;23240;43.210;27.910;2023-07-30T05:03:10;100787.44;;;27.46;100.00
37368;BME280;23240;43.210;27.910;2023-07-30T05:05:36;100788.16;;;27.72;100.00
37368;BME280;23240;43.210;27.910;2023-07-30T05:08:01;100797.59;;;28.23;100.00
37368;BME280;23240;43.210;27.910;2023-07-30T05:10:26;100788.63;;;28.91;100.00
37368;BME280;23240;43.210;27.910;2023-07-30T05:12:51;100795.69;;;29.73;100.00
37368;BME280;23240;43.210;27.910;2023-07-30T05:15:17;100790.59;;;30.15;96.51
37368;BME280;23240;43.210;27.910;2023-07-30T05:17:42;100794.34;;;30.26;92.11
37368;BME280;23240;43.210;27.910;2023-07-30T05:20:07;100793.13;;;30.60;90.15
37368;BME280;23240;43.210;27.910;2023-07-30T05:22:33;100794.25;;;31.03;85.86
37368;BME280;23240;43.210;27.910;2023-07-30T05:24:58;100798.47;;;31.33;79.16
37368;BME280;23240;43.210;27.910;2023-07-30T05:27:24;100803.66;;;31.56;70.43
37368;BME280;23240;43.210;27.910;2023-07-30T05:29:49;100812.66;;;31.68;66.90
37368;BME280;23240;43.210;27.910;2023-07-30T05:32:14;100814.03;;;31.71;65.18
37368;BME280;23240;43.210;27.910;2023-07-30T05:34:40;100810.13;;;31.67;66.55
37368;BME280;23240;43.210;27.910;2023-07-30T05:37:05;100814.03;;;31.98;66.63
37368;BME280;23240;43.210;27.910;2023-07-30T05:39:30;100804.56;;;31.94;63.25
37368;BME280;23240;43.210;27.910;2023-07-30T05:41:56;100812.22;;;32.19;62.99
37368;BME280;23240;43.210;27.910;2023-07-30T05:44:21;100812.16;;;32.46;62.08
37368;BME280;23240;43.210;27.910;2023-07-30T05:46:47;100814.72;;;32.68;61.30
37368;BME280;23240;43.210;27.910;2023-07-30T05:49:12;100813.84;;;32.57;62.02
37368;BME280;23240;43.210;27.910;2023-07-30T05:51:37;100807.88;;;32.33;63.06
37368;BME280;23240;43.210;27.910;2023-07-30T05:54:03;100814.91;;;32.46;62.34
37368;BME280;23240;43.210;27.910;2023-07-30T05:56:28;100815.06;;;32.77;60.79
37368;BME280;23240;43.210;27.910;2023-07-30T05:58:53;100817.00;;;32.76;59.38
37368;BME280;23240;43.210;27.910;2023-07-30T06:01:19;100814.06;;;32.98;57.54
37368;BME280;23240;43.210;27.910;2023-07-30T06:03:45;100807.97;;;33.06;57.66
37368;BME280;23240;43.210;27.910;2023-07-30T06:06:10;100810.16;;;32.94;57.94
37368;BME280;23240;43.210;27.910;2023-07-30T06:08:35;100815.63;;;32.79;57.69
37368;BME280;23240;43.210;27.910;2023-07-30T06:11:02;100812.22;;;32.61;58.21
37368;BME280;23240;43.210;27.910;2023-07-30T06:13:28;100809.91;;;32.43;59.69
37368;BME280;23240;43.210;27.910;2023-07-30T06:15:53;100813.28;;;32.50;58.95
37368;BME280;23240;43.210;27.910;2023-07-30T06:18:19;100816.00;;;32.40;60.13
37368;BME280;23240;43.210;27.910;2023-07-30T06:20:44;100812.38;;;32.39;58.47
37368;BME280;23240;43.210;27.910;2023-07-30T06:23:09;100817.00;;;32.29;57.51
37368;BME280;23240;43.210;27.910;2023-07-30T06:25:35;100824.44;;;31.86;59.73
37368;BME280;23240;43.210;27.910;2023-07-30T06:28:00;100828.63;;;31.88;58.62
37368;BME280;23240;43.210;27.910;2023-07-30T06:30:25;100827.94;;;31.22;61.36
37368;BME280;23240;43.210;27.910;2023-07-30T06:32:51;100826.09;;;30.62;67.11
37368;BME280;23240;43.210;27.910;2023-07-30T06:35:16;100823.13;;;30.68;66.15
37368;BME280;23240;43.210;27.910;2023-07-30T06:37:41;100816.19;;;30.88;64.37
37368;BME280;23240;43.210;27.910;2023-07-30T06:40:07;100823.50;;;30.99;64.49
37368;BME280;23240;43.210;27.910;2023-07-30T06:42:33;100818.19;;;31.14;64.55
37368;BME280;23240;43.210;27.910;2023-07-30T06:44:58;100821.75;;;31.37;62.24
37368;BME280;23240;43.210;27.910;2023-07-30T06:47:23;100820.56;;;31.55;61.74
37368;BME280;23240;43.210;27.910;2023-07-30T06:49:49;100821.69;;;31.32;61.68
37368;BME280;23240;43.210;27.910;2023-07-30T06:52:14;100809.00;;;31.36;61.64
37368;BME280;23240;43.210;27.910;2023-07-30T06:54:39;100810.06;;;31.30;62.74
37368;BME280;23240;43.210;27.910;2023-07-30T06:57:05;100806.28;;;31.68;61.48
37368;BME280;23240;43.210;27.910;2023-07-30T06:59:30;100802.72;;;31.72;61.80
37368;BME280;23240;43.210;27.910;2023-07-30T07:01:55;100803.38;;;31.85;61.38
37368;BME280;23240;43.210;27.910;2023-07-30T07:04:21;100798.78;;;32.01;61.99
37368;BME280;23240;43.210;27.910;2023-07-30T07:06:46;100813.91;;;32.25;59.62
37368;BME280;23240;43.210;27.910;2023-07-30T07:09:11;100803.47;;;31.95;59.83
37368;BME280;23240;43.210;27.910;2023-07-30T07:11:37;100801.69;;;31.52;61.98
37368;BME280;23240;43.210;27.910;2023-07-30T07:14:02;100800.66;;;31.58;63.23
37368;BME280;23240;43.210;27.910;2023-07-30T07:16:28;100800.91;;;31.56;61.55
37368;BME280;23240;43.210;27.910;2023-07-30T07:18:53;100803.56;;;31.46;63.46
37368;BME280;23240;43.210;27.910;2023-07-30T07:21:18;100801.28;;;31.38;65.00
37368;BME280;23240;43.210;27.910;2023-07-30T07:23:45;100801.03;;;31.71;63.31
37368;BME280;23240;43.210;27.910;2023-07-30T07:26:10;100806.81;;;31.97;60.88
37368;BME280;23240;43.210;27.910;2023-07-30T07:28:36;100804.97;;;31.81;62.51
37368;BME280;23240;43.210;27.910;2023-07-30T07:31:01;100808.94;;;31.85;61.87
37368;BME280;23240;43.210;27.910;2023-07-30T07:33:26;100808.41;;;31.88;62.45
37368;BME280;23240;43.210;27.910;2023-07-30T07:35:53;100812.00;;;31.61;65.15
37368;BME280;23240;43.210;27.910;2023-07-30T07:38:27;100805.94;;;31.91;62.89
37368;BME280;23240;43.210;27.910;2023-07-30T07:40:52;100811.59;;;32.07;61.15
37368;BME280;23240;43.210;27.910;2023-07-30T07:43:17;100810.19;;;32.04;62.05
37368;BME280;23240;43.210;27.910;2023-07-30T07:45:42;100810.53;;;32.13;61.73
37368;BME280;23240;43.210;27.910;2023-07-30T07:48:08;100805.09;;;31.91;61.93
37368;BME280;23240;43.210;27.910;2023-07-30T07:50:33;100800.91;;;32.26;61.22
37368;BME280;23240;43.210;27.910;2023-07-30T07:52:58;100795.34;;;32.20;61.15
37368;BME280;23240;43.210;27.910;2023-07-30T07:55:24;100802.94;;;31.98;61.49
37368;BME280;23240;43.210;27.910;2023-07-30T07:57:49;100804.38;;;31.73;63.22
37368;BME280;23240;43.210;27.910;2023-07-30T08:00:14;100792.31;;;31.85;62.37
37368;BME280;23240;43.210;27.910;2023-07-30T08:02:40;100799.94;;;31.72;62.47
37368;BME280;23240;43.210;27.910;2023-07-30T08:05:05;100791.31;;;31.37;65.85
37368;BME280;23240;43.210;27.910;2023-07-30T08:07:31;100797.53;;;31.49;65.20
37368;BME280;23240;43.210;27.910;2023-07-30T08:09:56;100789.97;;;31.77;64.93
37368;BME280;23240;43.210;27.910;2023-07-30T08:12:21;100792.41;;;31.36;65.54
37368;BME280;23240;43.210;27.910;2023-07-30T08:14:47;100800.00;;;31.23;67.99
37368;BME280;23240;43.210;27.910;2023-07-30T08:17:12;100788.25;;;31.33;71.24
37368;BME280;23240;43.210;27.910;2023-07-30T08:19:37;100790.94;;;31.55;66.03
37368;BME280;23240;43.210;27.910;2023-07-30T08:22:03;100799.66;;;31.42;67.91
37368;BME280;23240;43.210;27.910;2023-07-30T08:24:28;100795.28;;;30.97;71.16
37368;BME280;23240;43.210;27.910;2023-07-30T08:26:53;100786.59;;;30.66;72.60
37368;BME280;23240;43.210;27.910;2023-07-30T08:29:19;100794.25;;;30.59;75.37
37368;BME280;23240;43.210;27.910;2023-07-30T08:31:44;100797.53;;;30.56;75.32
37368;BME280;23240;43.210;27.910;2023-07-30T08:34:09;100782.03;;;30.55;79.47
37368;BME280;23240;43.210;27.910;2023-07-30T08:36:35;100790.03;;;30.74;79.57
37368;BME280;23240;43.210;27.910;2023-07-30T08:39:01;100799.28;;;30.62;78.10
37368;BME280;23240;43.210;27.910;2023-07-30T08:41:27;100788.34;;;29.95;87.56
37368;BME280;23240;43.210;27.910;2023-07-30T08:43:52;100794.84;;;30.06;84.19
37368;BME280;23240;43.210;27.910;2023-07-30T08:46:18;100803.97;;;30.06;88.46
37368;BME280;23240;43.210;27.910;2023-07-30T08:48:43;100792.34;;;30.04;89.71
37368;BME280;23240;43.210;27.910;2023-07-30T08:51:08;100793.84;;;29.95;94.01
37368;BME280;23240;43.210;27.910;2023-07-30T08:53:35;100800.09;;;30.07;90.94
37368;BME280;23240;43.210;27.910;2023-07-30T08:56:01;100793.75;;;29.73;99.01
37368;BME280;23240;43.210;27.910;2023-07-30T08:58:26;100784.72;;;29.78;96.97
37368;BME280;23240;43.210;27.910;2023-07-30T09:00:53;100790.28;;;29.49;100.00
37368;BME280;23240;43.210;27.910;2023-07-30T09:03:20;100789.72;;;29.47;100.00
37368;BME280;23240;43.210;27.910;2023-07-30T09:05:47;100782.84;;;29.33;100.00
37368;BME280;23240;43.210;27.910;2023-07-30T09:08:13;100780.28;;;29.14;100.00
37368;BME280;23240;43.210;27.910;2023-07-30T09:10:39;100777.97;;;28.94;100.00
37368;BME280;23240;43.210;27.910;2023-07-30T09:13:04;100783.53;;;28.71;100.00
37368;BME280;23240;43.210;27.910;2023-07-30T09:15:30;100774.63;;;28.40;100.00
37368;BME280;23240;43.210;27.910;2023-07-30T09:17:57;100771.13;;;27.75;100.00
37368;BME280;23240;43.210;27.910;2023-07-30T09:20:22;100779.19;;;27.46;100.00
37368;BME280;23240;43.210;27.910;2023-07-30T09:22:47;100767.66;;;27.26;100.00
37368;BME280;23240;43.210;27.910;2023-07-30T09:25:17;100777.66;;;27.08;100.00
37368;BME280;23240;43.210;27.910;2023-07-30T09:27:47;100762.13;;;26.84;100.00
37368;BME280;23240;43.210;27.910;2023-07-30T09:30:12;100772.78;;;26.92;100.00
37368;BME280;23240;43.210;27.910;2023-07-30T09:32:37;100762.19;;;27.07;100.00
37368;BME280;23240;43.210;27.910;2023-07-30T09:35:07;100768.69;;;27.43;100.00
37368;BME280;23240;43.210;27.910;2023-07-30T09:37:33;100759.69;;;27.36;100.00
37368;BME280;23240;43.210;27.910;2023-07-30T09:40:01;100763.84;;;27.27;100.00
37368;BME280;23240;43.210;27.910;2023-07-30T09:42:26;100767.34;;;27.34;100.00
37368;BME280;23240;43.210;27.910;2023-07-30T09:44:52;100766.44;;;27.63;100.00
37368;BME280;23240;43.210;27.910;2023-07-30T09:47:18;100760.16;;;27.86;100.00
37368;BME280;23240;43.210;27.910;2023-07-30T09:49:43;100755.47;;;27.87;100.00
37368;BME280;23240;43.210;27.910;2023-07-30T09:52:09;100760.63;;;28.07;100.00
37368;BME280;23240;43.210;27.910;2023-07-30T09:54:35;100760.72;;;28.24;100.00
37368;BME280;23240;43.210;27.910;2023-07-30T09:57:01;100759.88;;;28.23;100.00
37368;BME280;23240;43.210;27.910;2023-07-30T09:59:28;100756.91;;;28.36;100.00
37368;BME280;23240;43.210;27.910;2023-07-30T10:01:54;100766.09;;;28.54;100.00
37368;BME280;23240;43.210;27.910;2023-07-30T10:04:21;100767.78;;;28.43;100.00
37368;BME280;23240;43.210;27.910;2023-07-30T10:09:19;100758.34;;;28.15;100.00
37368;BME280;23240;43.210;27.910;2023-07-30T10:11:45;100752.84;;;28.15;100.00
37368;BME280;23240;43.210;27.910;2023-07-30T10:14:12;100749.00;;;28.16;100.00
37368;BME280;23240;43.210;27.910;2023-07-30T10:16:38;100756.91;;;28.25;100.00
37368;BME280;23240;43.210;27.910;2023-07-30T10:19:03;100750.66;;;28.17;100.00
37368;BME280;23240;43.210;27.910;2023-07-30T10:21:28;100752.13;;;28.08;100.00
37368;BME280;23240;43.210;27.910;2023-07-30T10:24:01;100745.41;;;28.04;100.00
37368;BME280;23240;43.210;27.910;2023-07-30T10:26:27;100751.53;;;27.95;100.00
37368;BME280;23240;43.210;27.910;2023-07-30T10:29:09;100745.63;;;27.67;100.00
37368;BME280;23240;43.210;27.910;2023-07-30T10:31:42;100750.38;;;27.37;100.00
37368;BME280;23240;43.210;27.910;2023-07-30T10:34:08;100751.03;;;27.21;100.00
37368;BME280;23240;43.210;27.910;2023-07-30T10:36:41;100750.31;;;27.13;100.00
37368;BME280;23240;43.210;27.910;2023-07-30T10:39:13;100745.47;;;27.27;100.00
37368;BME280;23240;43.210;27.910;2023-07-30T10:41:39;100743.97;;;27.13;100.00
37368;BME280;23240;43.210;27.910;2023-07-30T10:44:04;100748.88;;;26.92;100.00
37368;BME280;23240;43.210;27.910;2023-07-30T10:46:29;100742.09;;;26.95;100.00
37368;BME280;23240;43.210;27.910;2023-07-30T10:48:55;100748.53;;;26.89;100.00
37368;BME280;23240;43.210;27.910;2023-07-30T10:51:20;100745.97;;;26.87;100.00
37368;BME280;23240;43.210;27.910;2023-07-30T10:53:46;100749.34;;;26.89;100.00
37368;BME280;23240;43.210;27.910;2023-07-30T10:56:12;100739.06;;;26.85;100.00
37368;BME280;23240;43.210;27.910;2023-07-30T10:58:38;100741.38;;;26.70;100.00
37368;BME280;23240;43.210;27.910;2023-07-30T11:01:04;100746.41;;;26.54;100.00
37368;BME280;23240;43.210;27.910;2023-07-30T11:03:29;100732.78;;;26.48;100.00
37368;BME280;23240;43.210;27.910;2023-07-30T11:05:56;100733.97;;;26.33;100.00
37368;BME280;23240;43.210;27.910;2023-07-30T11:08:31;100737.88;;;26.26;100.00
37368;BME280;23240;43.210;27.910;2023-07-30T11:10:57;100740.00;;;26.24;100.00
37368;BME280;23240;43.210;27.910;2023-07-30T11:13:22;100736.16;;;26.25;100.00
37368;BME280;23240;43.210;27.910;2023-07-30T11:15:47;100735.72;;;26.28;100.00
37368;BME280;23240;43.210;27.910;2023-07-30T11:18:13;100727.19;;;26.36;100.00
37368;BME280;23240;43.210;27.910;2023-07-30T11:20:39;100728.59;;;26.45;100.00
37368;BME280;23240;43.210;27.910;2023-07-30T11:23:26;100724.44;;;26.54;100.00
37368;BME280;23240;43.210;27.910;2023-07-30T11:25:50;100724.28;;;26.68;100.00
37368;BME280;23240;43.210;27.910;2023-07-30T11:28:28;100726.25;;;26.79;100.00
37368;BME280;23240;43.210;27.910;2023-07-30T11:30:55;100717.25;;;26.72;100.00
37368;BME280;23240;43.210;27.910;2023-07-30T11:33:20;100713.53;;;26.66;100.00
37368;BME280;23240;43.210;27.910;2023-07-30T11:35:46;100716.13;;;26.61;100.00
37368;BME280;23240;43.210;27.910;2023-07-30T11:38:11;100723.09;;;26.45;100.00
37368;BME280;23240;43.210;27.910;2023-07-30T11:40:38;100719.72;;;26.43;100.00
37368;BME280;23240;43.210;27.910;2023-07-30T11:43:03;100717.81;;;26.44;100.00
37368;BME280;23240;43.210;27.910;2023-07-30T11:45:29;100711.75;;;26.35;100.00
37368;BME280;23240;43.210;27.910;2023-07-30T11:48:04;100716.66;;;26.33;100.00
37368;BME280;23240;43.210;27.910;2023-07-30T11:50:41;100717.72;;;26.32;100.00
37368;BME280;23240;43.210;27.910;2023-07-30T11:53:07;100713.31;;;26.31;100.00
37368;BME280;23240;43.210;27.910;2023-07-30T11:55:38;100711.03;;;26.46;100.00
37368;BME280;23240;43.210;27.910;2023-07-30T11:58:04;100711.94;;;26.40;100.00
37368;BME280;23240;43.210;27.910;2023-07-30T12:00:30;100712.25;;;26.32;100.00
37368;BME280;23240;43.210;27.910;2023-07-30T12:02:58;100707.00;;;26.30;100.00
37368;BME280;23240;43.210;27.910;2023-07-30T12:05:34;100707.19;;;26.29;100.00
37368;BME280;23240;43.210;27.910;2023-07-30T12:08:03;100709.34;;;26.27;100.00
37368;BME280;23240;43.210;27.910;2023-07-30T12:10:28;100702.88;;;26.21;100.00
37368;BME280;23240;43.210;27.910;2023-07-30T12:13:10;100698.81;;;26.24;100.00
37368;BME280;23240;43.210;27.910;2023-07-30T12:15:36;100699.44;;;26.26;100.00
37368;BME280;23240;43.210;27.910;2023-07-30T12:18:01;100694.53;;;26.28;100.00
37368;BME280;23240;43.210;27.910;2023-07-30T12:20:27;100690.13;;;26.27;100.00
37368;BME280;23240;43.210;27.910;2023-07-30T12:22:52;100695.00;;;26.25;100.00
37368;BME280;23240;43.210;27.910;2023-07-30T12:25:18;100688.22;;;26.27;100.00
37368;BME280;23240;43.210;27.910;2023-07-30T12:27:43;100687.38;;;26.27;100.00
37368;BME280;23240;43.210;27.910;2023-07-30T12:30:08;100677.91;;;26.23;100.00